Aviation Digital Data Service (ADDS)

Output produced by TAFs form (1742 UTC 03 December 2016)
found at http://aviationweather.gov/adds/tafs/
 
KPUB 031733Z 0318/0418 VRB05KT P6SM FEW250 
     FM032000 08007KT P6SM FEW150 SCT250 
     FM040000 08006KT P6SM FEW100 BKN150 
     FM040200 VRB04KT P6SM SCT050 BKN100 
     FM040700 VRB04KT P6SM FEW050 SCT250